sensor_id;sensor_type;location;lat;lon;timestamp;temperature;humidity
38726;DHT22;24474;48.906;8.808;2024-03-02T00:00:21;6.90;99.90
38726;DHT22;24474;48.906;8.808;2024-03-02T00:02:51;6.90;99.90
38726;DHT22;24474;48.906;8.808;2024-03-02T00:05:20;6.90;99.90
38726;DHT22;24474;48.906;8.808;2024-03-02T00:07:53;6.90;99.90
38726;DHT22;24474;48.906;8.808;2024-03-02T00:10:24;6.90;99.90
38726;DHT22;24474;48.906;8.808;2024-03-02T00:12:54;6.90;99.90
38726;DHT22;24474;48.906;8.808;2024-03-02T00:17:55;6.90;99.90
38726;DHT22;24474;48.906;8.808;2024-03-02T00:20:24;6.90;99.90
38726;DHT22;24474;48.906;8.808;2024-03-02T00:23:04;6.90;99.90
38726;DHT22;24474;48.906;8.808;2024-03-02T00:25:59;6.90;99.90
38726;DHT22;24474;48.906;8.808;2024-03-02T00:28:27;6.90;99.90
38726;DHT22;24474;48.906;8.808;2024-03-02T00:31:07;6.90;99.90
38726;DHT22;24474;48.906;8.808;2024-03-02T00:33:47;6.90;99.90
38726;DHT22;24474;48.906;8.808;2024-03-02T00:36:14;6.90;99.90
38726;DHT22;24474;48.906;8.808;2024-03-02T00:38:48;6.80;99.90
38726;DHT22;24474;48.906;8.808;2024-03-02T00:41:31;6.80;99.90
38726;DHT22;24474;48.906;8.808;2024-03-02T00:44:04;6.80;99.90
38726;DHT22;24474;48.906;8.808;2024-03-02T00:46:35;6.80;99.90
38726;DHT22;24474;48.906;8.808;2024-03-02T00:49:04;6.80;99.90
38726;DHT22;24474;48.906;8.808;2024-03-02T00:51:31;6.80;99.90
38726;DHT22;24474;48.906;8.808;2024-03-02T00:54:04;6.80;99.90
38726;DHT22;24474;48.906;8.808;2024-03-02T00:56:30;6.80;99.90
38726;DHT22;24474;48.906;8.808;2024-03-02T00:58:56;6.70;99.90
38726;DHT22;24474;48.906;8.808;2024-03-02T01:01:22;6.70;99.90
38726;DHT22;24474;48.906;8.808;2024-03-02T01:03:48;6.70;99.90
38726;DHT22;24474;48.906;8.808;2024-03-02T01:06:15;6.70;99.90
38726;DHT22;24474;48.906;8.808;2024-03-02T01:08:41;6.70;99.90
38726;DHT22;24474;48.906;8.808;2024-03-02T01:11:07;6.70;99.90
38726;DHT22;24474;48.906;8.808;2024-03-02T01:13:33;6.60;99.90
38726;DHT22;24474;48.906;8.808;2024-03-02T01:15:59;6.60;99.90
38726;DHT22;24474;48.906;8.808;2024-03-02T01:18:27;6.60;99.90
38726;DHT22;24474;48.906;8.808;2024-03-02T01:20:53;6.70;99.90
38726;DHT22;24474;48.906;8.808;2024-03-02T01:23:22;6.60;99.90
38726;DHT22;24474;48.906;8.808;2024-03-02T01:25:47;6.50;99.90
38726;DHT22;24474;48.906;8.808;2024-03-02T01:28:15;6.50;99.90
38726;DHT22;24474;48.906;8.808;2024-03-02T01:30:40;6.50;99.90
38726;DHT22;24474;48.906;8.808;2024-03-02T01:33:06;6.50;99.90
38726;DHT22;24474;48.906;8.808;2024-03-02T01:35:32;6.50;99.90
38726;DHT22;24474;48.906;8.808;2024-03-02T01:37:58;6.50;99.90
38726;DHT22;24474;48.906;8.808;2024-03-02T01:40:24;6.50;99.90
38726;DHT22;24474;48.906;8.808;2024-03-02T01:42:53;6.50;99.90
38726;DHT22;24474;48.906;8.808;2024-03-02T01:45:20;6.40;99.90
38726;DHT22;24474;48.906;8.808;2024-03-02T01:47:46;6.40;99.90
38726;DHT22;24474;48.906;8.808;2024-03-02T01:50:12;6.40;99.90
38726;DHT22;24474;48.906;8.808;2024-03-02T01:52:39;6.40;99.90
38726;DHT22;24474;48.906;8.808;2024-03-02T01:55:05;6.40;99.90
38726;DHT22;24474;48.906;8.808;2024-03-02T01:57:32;6.40;99.90
38726;DHT22;24474;48.906;8.808;2024-03-02T01:59:58;6.40;99.90
38726;DHT22;24474;48.906;8.808;2024-03-02T02:02:23;6.30;99.90
38726;DHT22;24474;48.906;8.808;2024-03-02T02:04:49;6.30;99.90
38726;DHT22;24474;48.906;8.808;2024-03-02T02:07:15;6.20;99.90
38726;DHT22;24474;48.906;8.808;2024-03-02T02:09:43;6.20;99.90
38726;DHT22;24474;48.906;8.808;2024-03-02T02:12:12;6.20;99.90
38726;DHT22;24474;48.906;8.808;2024-03-02T02:14:37;6.20;99.90
38726;DHT22;24474;48.906;8.808;2024-03-02T02:17:05;6.20;99.90
38726;DHT22;24474;48.906;8.808;2024-03-02T02:19:30;6.10;99.90
38726;DHT22;24474;48.906;8.808;2024-03-02T02:21:56;6.10;99.90
38726;DHT22;24474;48.906;8.808;2024-03-02T02:24:22;6.10;99.90
38726;DHT22;24474;48.906;8.808;2024-03-02T02:26:47;6.10;99.90
38726;DHT22;24474;48.906;8.808;2024-03-02T02:29:13;6.10;99.90
38726;DHT22;24474;48.906;8.808;2024-03-02T02:31:39;6.00;99.90
38726;DHT22;24474;48.906;8.808;2024-03-02T02:34:05;6.00;99.90
38726;DHT22;24474;48.906;8.808;2024-03-02T02:36:34;6.00;99.90
38726;DHT22;24474;48.906;8.808;2024-03-02T02:39:03;6.00;99.90
38726;DHT22;24474;48.906;8.808;2024-03-02T02:41:29;6.00;99.90
38726;DHT22;24474;48.906;8.808;2024-03-02T02:43:55;5.90;99.90
38726;DHT22;24474;48.906;8.808;2024-03-02T02:46:21;6.00;99.90
38726;DHT22;24474;48.906;8.808;2024-03-02T02:48:47;6.00;99.90
38726;DHT22;24474;48.906;8.808;2024-03-02T02:51:12;5.90;99.90
38726;DHT22;24474;48.906;8.808;2024-03-02T02:53:38;5.90;99.90
38726;DHT22;24474;48.906;8.808;2024-03-02T02:56:06;5.90;99.90
38726;DHT22;24474;48.906;8.808;2024-03-02T02:58:32;5.90;99.90
38726;DHT22;24474;48.906;8.808;2024-03-02T03:00:57;5.90;99.90
38726;DHT22;24474;48.906;8.808;2024-03-02T03:03:23;6.00;99.90
38726;DHT22;24474;48.906;8.808;2024-03-02T03:05:49;5.90;99.90
38726;DHT22;24474;48.906;8.808;2024-03-02T03:08:14;5.90;99.90
38726;DHT22;24474;48.906;8.808;2024-03-02T03:10:41;5.90;99.90
38726;DHT22;24474;48.906;8.808;2024-03-02T03:13:07;5.90;99.90
38726;DHT22;24474;48.906;8.808;2024-03-02T03:15:35;5.90;99.90
38726;DHT22;24474;48.906;8.808;2024-03-02T03:18:04;5.90;99.90
38726;DHT22;24474;48.906;8.808;2024-03-02T03:20:30;5.90;99.90
38726;DHT22;24474;48.906;8.808;2024-03-02T03:22:56;5.90;99.90
38726;DHT22;24474;48.906;8.808;2024-03-02T03:25:22;5.90;99.90
38726;DHT22;24474;48.906;8.808;2024-03-02T03:27:48;5.90;99.90
38726;DHT22;24474;48.906;8.808;2024-03-02T03:30:14;5.90;99.90
38726;DHT22;24474;48.906;8.808;2024-03-02T03:32:39;5.90;99.90
38726;DHT22;24474;48.906;8.808;2024-03-02T03:35:06;5.90;99.90
38726;DHT22;24474;48.906;8.808;2024-03-02T03:37:32;5.90;99.90
38726;DHT22;24474;48.906;8.808;2024-03-02T03:40:04;6.00;99.90
38726;DHT22;24474;48.906;8.808;2024-03-02T03:42:38;6.00;99.90
38726;DHT22;24474;48.906;8.808;2024-03-02T03:45:06;5.90;99.90
38726;DHT22;24474;48.906;8.808;2024-03-02T03:47:32;5.90;99.90
38726;DHT22;24474;48.906;8.808;2024-03-02T03:49:58;6.00;99.90
38726;DHT22;24474;48.906;8.808;2024-03-02T03:52:24;5.90;99.90
38726;DHT22;24474;48.906;8.808;2024-03-02T03:54:50;5.90;99.90
38726;DHT22;24474;48.906;8.808;2024-03-02T03:57:16;5.90;99.90
38726;DHT22;24474;48.906;8.808;2024-03-02T03:59:42;5.90;99.90
38726;DHT22;24474;48.906;8.808;2024-03-02T04:02:09;5.90;99.90
38726;DHT22;24474;48.906;8.808;2024-03-02T04:04:35;5.90;99.90
38726;DHT22;24474;48.906;8.808;2024-03-02T04:07:01;5.90;99.90
38726;DHT22;24474;48.906;8.808;2024-03-02T04:09:27;5.90;99.90
38726;DHT22;24474;48.906;8.808;2024-03-02T04:11:53;6.00;99.90
38726;DHT22;24474;48.906;8.808;2024-03-02T04:14:18;6.00;99.90
38726;DHT22;24474;48.906;8.808;2024-03-02T04:16:44;6.00;99.90
38726;DHT22;24474;48.906;8.808;2024-03-02T04:19:10;6.00;99.90
38726;DHT22;24474;48.906;8.808;2024-03-02T04:21:35;6.00;99.90
38726;DHT22;24474;48.906;8.808;2024-03-02T04:24:01;6.00;99.90
38726;DHT22;24474;48.906;8.808;2024-03-02T04:26:27;6.00;99.90
38726;DHT22;24474;48.906;8.808;2024-03-02T04:28:53;6.00;99.90
38726;DHT22;24474;48.906;8.808;2024-03-02T04:31:19;6.00;99.90
38726;DHT22;24474;48.906;8.808;2024-03-02T04:33:45;6.00;99.90
38726;DHT22;24474;48.906;8.808;2024-03-02T04:36:10;6.00;99.90
38726;DHT22;24474;48.906;8.808;2024-03-02T04:38:36;6.00;99.90
38726;DHT22;24474;48.906;8.808;2024-03-02T04:41:03;6.00;99.90
38726;DHT22;24474;48.906;8.808;2024-03-02T04:43:28;6.00;99.90
38726;DHT22;24474;48.906;8.808;2024-03-02T04:45:54;6.10;99.90
38726;DHT22;24474;48.906;8.808;2024-03-02T04:48:19;6.00;99.90
38726;DHT22;24474;48.906;8.808;2024-03-02T04:50:47;6.00;99.90
38726;DHT22;24474;48.906;8.808;2024-03-02T04:53:13;6.00;99.90
38726;DHT22;24474;48.906;8.808;2024-03-02T04:55:39;6.00;99.90
38726;DHT22;24474;48.906;8.808;2024-03-02T04:58:04;6.00;99.90
38726;DHT22;24474;48.906;8.808;2024-03-02T05:00:30;6.00;99.90
38726;DHT22;24474;48.906;8.808;2024-03-02T05:02:56;6.00;99.90
38726;DHT22;24474;48.906;8.808;2024-03-02T05:05:22;6.00;99.90
38726;DHT22;24474;48.906;8.808;2024-03-02T05:07:47;6.00;99.90
38726;DHT22;24474;48.906;8.808;2024-03-02T05:10:13;6.00;99.90
38726;DHT22;24474;48.906;8.808;2024-03-02T05:12:39;6.00;99.90
38726;DHT22;24474;48.906;8.808;2024-03-02T05:15:08;6.00;99.90
38726;DHT22;24474;48.906;8.808;2024-03-02T05:17:44;6.00;99.90
38726;DHT22;24474;48.906;8.808;2024-03-02T05:20:11;6.00;99.90
38726;DHT22;24474;48.906;8.808;2024-03-02T05:22:37;6.00;99.90
38726;DHT22;24474;48.906;8.808;2024-03-02T05:25:06;6.00;99.90
38726;DHT22;24474;48.906;8.808;2024-03-02T05:27:32;6.00;99.90
38726;DHT22;24474;48.906;8.808;2024-03-02T05:30:00;5.90;99.90
38726;DHT22;24474;48.906;8.808;2024-03-02T05:32:25;5.90;99.90
38726;DHT22;24474;48.906;8.808;2024-03-02T05:34:51;5.90;99.90
38726;DHT22;24474;48.906;8.808;2024-03-02T05:37:17;5.90;99.90
38726;DHT22;24474;48.906;8.808;2024-03-02T05:39:42;5.90;99.90
38726;DHT22;24474;48.906;8.808;2024-03-02T05:42:09;5.90;99.90
38726;DHT22;24474;48.906;8.808;2024-03-02T05:44:35;5.90;99.90
38726;DHT22;24474;48.906;8.808;2024-03-02T05:47:01;5.90;99.90
38726;DHT22;24474;48.906;8.808;2024-03-02T05:49:26;5.90;99.90
38726;DHT22;24474;48.906;8.808;2024-03-02T05:51:52;5.90;99.90
38726;DHT22;24474;48.906;8.808;2024-03-02T05:54:17;5.90;99.90
38726;DHT22;24474;48.906;8.808;2024-03-02T05:56:44;5.90;99.90
38726;DHT22;24474;48.906;8.808;2024-03-02T05:59:09;5.90;99.90
38726;DHT22;24474;48.906;8.808;2024-03-02T06:01:35;5.90;99.90
38726;DHT22;24474;48.906;8.808;2024-03-02T06:04:00;5.90;99.90
38726;DHT22;24474;48.906;8.808;2024-03-02T06:06:26;5.90;99.90
38726;DHT22;24474;48.906;8.808;2024-03-02T06:08:52;5.90;99.90
38726;DHT22;24474;48.906;8.808;2024-03-02T06:11:19;5.80;99.90
38726;DHT22;24474;48.906;8.808;2024-03-02T06:13:45;6.00;99.90
38726;DHT22;24474;48.906;8.808;2024-03-02T06:16:11;5.80;99.90
38726;DHT22;24474;48.906;8.808;2024-03-02T06:18:36;5.80;99.90
38726;DHT22;24474;48.906;8.808;2024-03-02T06:21:02;5.90;99.90
38726;DHT22;24474;48.906;8.808;2024-03-02T06:23:28;5.90;99.90
38726;DHT22;24474;48.906;8.808;2024-03-02T06:25:54;6.00;99.90
38726;DHT22;24474;48.906;8.808;2024-03-02T06:28:19;5.90;99.90
38726;DHT22;24474;48.906;8.808;2024-03-02T06:30:45;5.90;99.90
38726;DHT22;24474;48.906;8.808;2024-03-02T06:33:11;5.90;99.90
38726;DHT22;24474;48.906;8.808;2024-03-02T06:35:37;5.90;99.90
38726;DHT22;24474;48.906;8.808;2024-03-02T06:38:03;5.90;99.90
38726;DHT22;24474;48.906;8.808;2024-03-02T06:40:29;5.90;99.90
38726;DHT22;24474;48.906;8.808;2024-03-02T06:42:55;5.90;99.90
38726;DHT22;24474;48.906;8.808;2024-03-02T06:45:20;5.90;99.90
38726;DHT22;24474;48.906;8.808;2024-03-02T06:47:46;5.90;99.90
38726;DHT22;24474;48.906;8.808;2024-03-02T06:50:12;5.90;99.90
38726;DHT22;24474;48.906;8.808;2024-03-02T06:52:38;5.90;99.90
38726;DHT22;24474;48.906;8.808;2024-03-02T06:55:04;6.00;99.90
38726;DHT22;24474;48.906;8.808;2024-03-02T06:57:30;5.90;99.90
38726;DHT22;24474;48.906;8.808;2024-03-02T06:59:56;6.00;99.90
38726;DHT22;24474;48.906;8.808;2024-03-02T07:02:24;6.00;99.90
38726;DHT22;24474;48.906;8.808;2024-03-02T07:04:53;6.00;99.90
38726;DHT22;24474;48.906;8.808;2024-03-02T07:07:19;6.00;99.90
38726;DHT22;24474;48.906;8.808;2024-03-02T07:09:45;6.00;99.90
38726;DHT22;24474;48.906;8.808;2024-03-02T07:12:10;6.10;99.90
38726;DHT22;24474;48.906;8.808;2024-03-02T07:14:36;6.00;99.90
38726;DHT22;24474;48.906;8.808;2024-03-02T07:17:25;6.10;99.90
38726;DHT22;24474;48.906;8.808;2024-03-02T07:19:51;6.10;99.90
38726;DHT22;24474;48.906;8.808;2024-03-02T07:22:16;6.10;99.90
38726;DHT22;24474;48.906;8.808;2024-03-02T07:24:44;6.10;99.90
38726;DHT22;24474;48.906;8.808;2024-03-02T07:27:12;6.10;99.90
38726;DHT22;24474;48.906;8.808;2024-03-02T07:29:39;6.10;99.90
38726;DHT22;24474;48.906;8.808;2024-03-02T07:32:05;6.10;99.90
38726;DHT22;24474;48.906;8.808;2024-03-02T07:34:31;6.10;99.90
38726;DHT22;24474;48.906;8.808;2024-03-02T07:36:57;6.10;99.90
38726;DHT22;24474;48.906;8.808;2024-03-02T07:39:23;6.10;99.90
38726;DHT22;24474;48.906;8.808;2024-03-02T07:41:49;6.10;99.90
38726;DHT22;24474;48.906;8.808;2024-03-02T07:44:14;6.10;99.90
38726;DHT22;24474;48.906;8.808;2024-03-02T07:46:44;6.10;99.90
38726;DHT22;24474;48.906;8.808;2024-03-02T07:49:12;6.10;99.90
38726;DHT22;24474;48.906;8.808;2024-03-02T07:51:39;6.10;99.90
38726;DHT22;24474;48.906;8.808;2024-03-02T07:54:04;6.10;99.90
38726;DHT22;24474;48.906;8.808;2024-03-02T07:56:30;6.20;99.90
38726;DHT22;24474;48.906;8.808;2024-03-02T07:58:56;6.20;99.90
38726;DHT22;24474;48.906;8.808;2024-03-02T08:01:32;6.20;99.90
38726;DHT22;24474;48.906;8.808;2024-03-02T08:03:59;6.30;99.90
38726;DHT22;24474;48.906;8.808;2024-03-02T08:06:28;6.30;99.90
38726;DHT22;24474;48.906;8.808;2024-03-02T08:08:57;6.30;99.90
38726;DHT22;24474;48.906;8.808;2024-03-02T08:11:23;6.30;99.90
38726;DHT22;24474;48.906;8.808;2024-03-02T08:13:49;6.40;99.90
38726;DHT22;24474;48.906;8.808;2024-03-02T08:16:18;6.40;99.90
38726;DHT22;24474;48.906;8.808;2024-03-02T08:18:46;6.50;99.90
38726;DHT22;24474;48.906;8.808;2024-03-02T08:21:12;6.50;99.90
38726;DHT22;24474;48.906;8.808;2024-03-02T08:23:38;6.60;99.90
38726;DHT22;24474;48.906;8.808;2024-03-02T08:26:06;6.60;99.90
38726;DHT22;24474;48.906;8.808;2024-03-02T08:28:32;6.70;99.90
38726;DHT22;24474;48.906;8.808;2024-03-02T08:30:58;6.70;99.90
38726;DHT22;24474;48.906;8.808;2024-03-02T08:33:24;6.70;99.90
38726;DHT22;24474;48.906;8.808;2024-03-02T08:35:50;6.80;99.90
38726;DHT22;24474;48.906;8.808;2024-03-02T08:38:15;6.90;99.90
38726;DHT22;24474;48.906;8.808;2024-03-02T08:40:41;6.80;99.90
38726;DHT22;24474;48.906;8.808;2024-03-02T08:43:07;6.90;99.90
38726;DHT22;24474;48.906;8.808;2024-03-02T08:45:33;6.90;99.90
38726;DHT22;24474;48.906;8.808;2024-03-02T08:48:00;7.00;99.90
38726;DHT22;24474;48.906;8.808;2024-03-02T08:50:25;7.00;99.90
38726;DHT22;24474;48.906;8.808;2024-03-02T08:52:51;7.00;99.90
38726;DHT22;24474;48.906;8.808;2024-03-02T08:55:17;7.10;99.90
38726;DHT22;24474;48.906;8.808;2024-03-02T08:57:42;7.20;99.90
38726;DHT22;24474;48.906;8.808;2024-03-02T09:00:08;7.30;99.90
38726;DHT22;24474;48.906;8.808;2024-03-02T09:02:34;7.30;99.90
38726;DHT22;24474;48.906;8.808;2024-03-02T09:05:01;7.40;99.90
38726;DHT22;24474;48.906;8.808;2024-03-02T09:07:26;7.50;99.90
38726;DHT22;24474;48.906;8.808;2024-03-02T09:09:52;7.50;99.90
38726;DHT22;24474;48.906;8.808;2024-03-02T09:12:20;7.50;99.90
38726;DHT22;24474;48.906;8.808;2024-03-02T09:14:46;7.60;99.90
38726;DHT22;24474;48.906;8.808;2024-03-02T09:17:12;7.60;99.90
38726;DHT22;24474;48.906;8.808;2024-03-02T09:19:39;7.70;99.90
38726;DHT22;24474;48.906;8.808;2024-03-02T09:22:05;7.70;99.90
38726;DHT22;24474;48.906;8.808;2024-03-02T09:24:31;7.80;99.90
38726;DHT22;24474;48.906;8.808;2024-03-02T09:26:58;7.90;99.90
38726;DHT22;24474;48.906;8.808;2024-03-02T09:29:24;7.90;99.90
38726;DHT22;24474;48.906;8.808;2024-03-02T09:31:50;8.00;99.90
38726;DHT22;24474;48.906;8.808;2024-03-02T09:34:16;8.10;99.90
38726;DHT22;24474;48.906;8.808;2024-03-02T09:36:42;8.10;99.90
38726;DHT22;24474;48.906;8.808;2024-03-02T09:39:08;8.20;99.90
38726;DHT22;24474;48.906;8.808;2024-03-02T09:41:38;8.30;99.90
38726;DHT22;24474;48.906;8.808;2024-03-02T09:44:05;8.30;99.90
38726;DHT22;24474;48.906;8.808;2024-03-02T09:46:31;8.40;99.90
38726;DHT22;24474;48.906;8.808;2024-03-02T09:48:56;8.40;99.90
38726;DHT22;24474;48.906;8.808;2024-03-02T09:51:23;8.50;99.90
38726;DHT22;24474;48.906;8.808;2024-03-02T09:53:49;8.60;99.90
38726;DHT22;24474;48.906;8.808;2024-03-02T09:56:15;8.60;99.90
38726;DHT22;24474;48.906;8.808;2024-03-02T09:58:41;8.70;99.90
38726;DHT22;24474;48.906;8.808;2024-03-02T10:01:07;8.70;99.90
38726;DHT22;24474;48.906;8.808;2024-03-02T10:03:33;8.70;99.90
38726;DHT22;24474;48.906;8.808;2024-03-02T10:06:21;8.80;99.90
38726;DHT22;24474;48.906;8.808;2024-03-02T10:08:47;8.90;99.90
38726;DHT22;24474;48.906;8.808;2024-03-02T10:11:31;9.00;99.90
38726;DHT22;24474;48.906;8.808;2024-03-02T10:14:11;9.00;99.90
38726;DHT22;24474;48.906;8.808;2024-03-02T10:16:42;9.10;99.90
38726;DHT22;24474;48.906;8.808;2024-03-02T10:19:21;9.20;99.90
38726;DHT22;24474;48.906;8.808;2024-03-02T10:21:51;9.30;99.90
38726;DHT22;24474;48.906;8.808;2024-03-02T10:24:18;9.30;99.90
38726;DHT22;24474;48.906;8.808;2024-03-02T10:26:44;9.40;99.90
38726;DHT22;24474;48.906;8.808;2024-03-02T10:29:10;9.40;99.90
38726;DHT22;24474;48.906;8.808;2024-03-02T10:31:40;9.40;99.90
38726;DHT22;24474;48.906;8.808;2024-03-02T10:34:07;9.50;99.90
38726;DHT22;24474;48.906;8.808;2024-03-02T10:36:34;9.50;99.90
38726;DHT22;24474;48.906;8.808;2024-03-02T10:39:05;9.60;99.90
38726;DHT22;24474;48.906;8.808;2024-03-02T10:41:35;9.60;99.90
38726;DHT22;24474;48.906;8.808;2024-03-02T10:44:09;9.70;99.90
38726;DHT22;24474;48.906;8.808;2024-03-02T10:46:36;9.80;99.90
38726;DHT22;24474;48.906;8.808;2024-03-02T10:49:03;9.80;99.90
38726;DHT22;24474;48.906;8.808;2024-03-02T10:51:33;9.90;99.90
38726;DHT22;24474;48.906;8.808;2024-03-02T10:54:02;9.90;99.90
38726;DHT22;24474;48.906;8.808;2024-03-02T10:56:42;10.00;99.90
38726;DHT22;24474;48.906;8.808;2024-03-02T11:01:39;10.20;99.90
38726;DHT22;24474;48.906;8.808;2024-03-02T11:04:08;10.20;99.90
38726;DHT22;24474;48.906;8.808;2024-03-02T11:06:36;10.30;99.90
38726;DHT22;24474;48.906;8.808;2024-03-02T11:09:07;10.40;99.90
38726;DHT22;24474;48.906;8.808;2024-03-02T11:11:37;10.40;99.90
38726;DHT22;24474;48.906;8.808;2024-03-02T11:14:06;10.40;99.90
38726;DHT22;24474;48.906;8.808;2024-03-02T11:16:37;10.50;99.90
38726;DHT22;24474;48.906;8.808;2024-03-02T11:19:05;10.60;99.90
38726;DHT22;24474;48.906;8.808;2024-03-02T11:21:33;10.70;99.90
38726;DHT22;24474;48.906;8.808;2024-03-02T11:23:59;10.80;99.90
38726;DHT22;24474;48.906;8.808;2024-03-02T11:26:25;10.90;99.90
38726;DHT22;24474;48.906;8.808;2024-03-02T11:28:51;10.90;99.90
38726;DHT22;24474;48.906;8.808;2024-03-02T11:31:17;11.00;99.90
38726;DHT22;24474;48.906;8.808;2024-03-02T11:33:42;11.10;99.90
38726;DHT22;24474;48.906;8.808;2024-03-02T11:36:09;11.10;99.90
38726;DHT22;24474;48.906;8.808;2024-03-02T11:38:35;11.20;99.90
38726;DHT22;24474;48.906;8.808;2024-03-02T11:41:07;11.30;99.90
38726;DHT22;24474;48.906;8.808;2024-03-02T11:43:42;11.30;99.90
38726;DHT22;24474;48.906;8.808;2024-03-02T11:46:10;11.30;99.90
38726;DHT22;24474;48.906;8.808;2024-03-02T11:48:37;11.40;99.90
38726;DHT22;24474;48.906;8.808;2024-03-02T11:51:03;11.40;99.90
38726;DHT22;24474;48.906;8.808;2024-03-02T11:53:30;11.40;99.90
38726;DHT22;24474;48.906;8.808;2024-03-02T11:55:58;11.40;99.90
38726;DHT22;24474;48.906;8.808;2024-03-02T11:58:24;11.50;99.90
38726;DHT22;24474;48.906;8.808;2024-03-02T12:00:52;11.50;99.90
38726;DHT22;24474;48.906;8.808;2024-03-02T12:03:21;11.60;99.90
38726;DHT22;24474;48.906;8.808;2024-03-02T12:05:49;11.70;99.90
38726;DHT22;24474;48.906;8.808;2024-03-02T12:08:15;11.80;99.90
38726;DHT22;24474;48.906;8.808;2024-03-02T12:10:41;11.80;99.90
38726;DHT22;24474;48.906;8.808;2024-03-02T12:13:07;11.80;99.90
38726;DHT22;24474;48.906;8.808;2024-03-02T12:15:36;11.90;99.90
38726;DHT22;24474;48.906;8.808;2024-03-02T12:18:02;11.90;99.90
38726;DHT22;24474;48.906;8.808;2024-03-02T12:20:31;11.90;99.90
38726;DHT22;24474;48.906;8.808;2024-03-02T12:23:01;11.90;99.90
38726;DHT22;24474;48.906;8.808;2024-03-02T12:25:28;11.90;99.90
38726;DHT22;24474;48.906;8.808;2024-03-02T12:27:55;12.00;99.90
38726;DHT22;24474;48.906;8.808;2024-03-02T12:30:21;12.00;99.90
38726;DHT22;24474;48.906;8.808;2024-03-02T12:32:47;12.00;99.90
38726;DHT22;24474;48.906;8.808;2024-03-02T12:35:14;12.10;99.90
38726;DHT22;24474;48.906;8.808;2024-03-02T12:37:44;12.10;99.90
38726;DHT22;24474;48.906;8.808;2024-03-02T12:40:11;12.20;99.90
38726;DHT22;24474;48.906;8.808;2024-03-02T12:42:38;12.20;99.90
38726;DHT22;24474;48.906;8.808;2024-03-02T12:45:06;12.30;99.90
38726;DHT22;24474;48.906;8.808;2024-03-02T12:47:33;12.30;99.90
38726;DHT22;24474;48.906;8.808;2024-03-02T12:50:00;12.40;99.90
38726;DHT22;24474;48.906;8.808;2024-03-02T12:52:28;12.40;99.90
38726;DHT22;24474;48.906;8.808;2024-03-02T12:54:53;12.40;99.90
38726;DHT22;24474;48.906;8.808;2024-03-02T12:57:26;12.50;99.90
38726;DHT22;24474;48.906;8.808;2024-03-02T13:00:03;12.50;99.90
38726;DHT22;24474;48.906;8.808;2024-03-02T13:02:34;12.60;99.90
38726;DHT22;24474;48.906;8.808;2024-03-02T13:05:00;12.60;99.90
38726;DHT22;24474;48.906;8.808;2024-03-02T13:07:26;12.70;99.90
38726;DHT22;24474;48.906;8.808;2024-03-02T13:09:52;12.60;99.90
38726;DHT22;24474;48.906;8.808;2024-03-02T13:12:19;12.60;99.90
38726;DHT22;24474;48.906;8.808;2024-03-02T13:14:49;12.70;99.90
38726;DHT22;24474;48.906;8.808;2024-03-02T13:17:16;12.70;99.90
38726;DHT22;24474;48.906;8.808;2024-03-02T13:19:58;12.80;99.90
38726;DHT22;24474;48.906;8.808;2024-03-02T13:22:25;12.90;99.90
38726;DHT22;24474;48.906;8.808;2024-03-02T13:24:51;12.90;99.90
38726;DHT22;24474;48.906;8.808;2024-03-02T13:27:18;12.90;99.90
38726;DHT22;24474;48.906;8.808;2024-03-02T13:29:47;12.90;99.90
38726;DHT22;24474;48.906;8.808;2024-03-02T13:32:16;12.90;99.90
38726;DHT22;24474;48.906;8.808;2024-03-02T13:34:43;12.90;99.90
38726;DHT22;24474;48.906;8.808;2024-03-02T13:37:11;12.90;99.90
38726;DHT22;24474;48.906;8.808;2024-03-02T13:39:37;12.90;99.90
38726;DHT22;24474;48.906;8.808;2024-03-02T13:42:10;12.90;99.90
38726;DHT22;24474;48.906;8.808;2024-03-02T13:44:44;12.90;99.90
38726;DHT22;24474;48.906;8.808;2024-03-02T13:47:16;12.90;99.90
38726;DHT22;24474;48.906;8.808;2024-03-02T13:49:43;12.90;99.90
38726;DHT22;24474;48.906;8.808;2024-03-02T13:52:11;12.90;99.90
38726;DHT22;24474;48.906;8.808;2024-03-02T13:54:44;13.00;99.90
38726;DHT22;24474;48.906;8.808;2024-03-02T13:57:10;13.10;99.90
38726;DHT22;24474;48.906;8.808;2024-03-02T13:59:39;13.10;99.90
38726;DHT22;24474;48.906;8.808;2024-03-02T14:02:13;13.10;99.90
38726;DHT22;24474;48.906;8.808;2024-03-02T14:04:41;13.10;99.90
38726;DHT22;24474;48.906;8.808;2024-03-02T14:07:08;13.10;99.90
38726;DHT22;24474;48.906;8.808;2024-03-02T14:09:36;13.10;99.90
38726;DHT22;24474;48.906;8.808;2024-03-02T14:12:08;13.10;99.90
38726;DHT22;24474;48.906;8.808;2024-03-02T14:14:39;13.10;99.90
38726;DHT22;24474;48.906;8.808;2024-03-02T14:17:06;13.20;99.90
38726;DHT22;24474;48.906;8.808;2024-03-02T14:19:45;13.20;99.90
38726;DHT22;24474;48.906;8.808;2024-03-02T14:22:10;13.20;99.90
38726;DHT22;24474;48.906;8.808;2024-03-02T14:24:39;13.20;99.90
38726;DHT22;24474;48.906;8.808;2024-03-02T14:27:04;13.30;99.90
38726;DHT22;24474;48.906;8.808;2024-03-02T14:29:31;13.30;99.90
38726;DHT22;24474;48.906;8.808;2024-03-02T14:32:03;13.30;99.90
38726;DHT22;24474;48.906;8.808;2024-03-02T14:34:30;13.40;99.90
38726;DHT22;24474;48.906;8.808;2024-03-02T14:36:57;13.40;99.90
38726;DHT22;24474;48.906;8.808;2024-03-02T14:39:22;13.50;99.90
38726;DHT22;24474;48.906;8.808;2024-03-02T14:41:48;13.50;99.90
38726;DHT22;24474;48.906;8.808;2024-03-02T14:44:14;13.50;99.90
38726;DHT22;24474;48.906;8.808;2024-03-02T14:46:41;13.50;99.90
38726;DHT22;24474;48.906;8.808;2024-03-02T14:49:09;13.50;99.90
38726;DHT22;24474;48.906;8.808;2024-03-02T14:51:36;13.40;99.90
38726;DHT22;24474;48.906;8.808;2024-03-02T14:54:03;13.40;99.90
38726;DHT22;24474;48.906;8.808;2024-03-02T14:56:30;13.40;99.90
38726;DHT22;24474;48.906;8.808;2024-03-02T14:58:57;13.40;99.90
38726;DHT22;24474;48.906;8.808;2024-03-02T15:01:26;13.40;99.90
38726;DHT22;24474;48.906;8.808;2024-03-02T15:03:52;13.40;99.90
38726;DHT22;24474;48.906;8.808;2024-03-02T15:06:19;13.40;99.90
38726;DHT22;24474;48.906;8.808;2024-03-02T15:08:46;13.40;99.90
38726;DHT22;24474;48.906;8.808;2024-03-02T15:11:12;13.30;99.90
38726;DHT22;24474;48.906;8.808;2024-03-02T15:13:39;13.30;99.90
38726;DHT22;24474;48.906;8.808;2024-03-02T15:16:05;13.30;99.90
38726;DHT22;24474;48.906;8.808;2024-03-02T15:18:31;13.20;99.90
38726;DHT22;24474;48.906;8.808;2024-03-02T15:20:58;13.20;99.90
38726;DHT22;24474;48.906;8.808;2024-03-02T15:23:24;13.20;99.90
38726;DHT22;24474;48.906;8.808;2024-03-02T15:25:52;13.10;99.90
38726;DHT22;24474;48.906;8.808;2024-03-02T15:28:20;13.20;99.90
38726;DHT22;24474;48.906;8.808;2024-03-02T15:30:46;13.10;99.90
38726;DHT22;24474;48.906;8.808;2024-03-02T15:33:12;13.10;99.90
38726;DHT22;24474;48.906;8.808;2024-03-02T15:35:38;13.10;99.90
38726;DHT22;24474;48.906;8.808;2024-03-02T15:38:04;13.00;99.90
38726;DHT22;24474;48.906;8.808;2024-03-02T15:40:33;13.00;99.90
38726;DHT22;24474;48.906;8.808;2024-03-02T15:43:00;13.00;99.90
38726;DHT22;24474;48.906;8.808;2024-03-02T15:45:25;13.00;99.90
38726;DHT22;24474;48.906;8.808;2024-03-02T15:48:01;13.00;99.90